sensor_id;sensor_type;location;lat;lon;timestamp;pressure;altitude;pressure_sealevel;temperature;humidity
3748;BME280;1889;50.058;8.688;2022-10-14T00:01:40;100379.15;;;15.60;81.54
3748;BME280;1889;50.058;8.688;2022-10-14T00:04:10;100379.88;;;15.50;81.54
3748;BME280;1889;50.058;8.688;2022-10-14T00:06:39;100380.90;;;15.33;82.86
3748;BME280;1889;50.058;8.688;2022-10-14T00:09:09;100382.58;;;15.49;82.41
3748;BME280;1889;50.058;8.688;2022-10-14T00:11:38;100381.62;;;15.51;81.87
3748;BME280;1889;50.058;8.688;2022-10-14T00:14:11;100375.11;;;15.48;82.09
3748;BME280;1889;50.058;8.688;2022-10-14T00:16:42;100375.11;;;15.48;82.09
3748;BME280;1889;50.058;8.688;2022-10-14T00:19:12;100378.05;;;15.52;82.05
3748;BME280;1889;50.058;8.688;2022-10-14T00:21:43;100370.91;;;15.56;81.85
3748;BME280;1889;50.058;8.688;2022-10-14T00:24:14;100376.91;;;15.61;81.62
3748;BME280;1889;50.058;8.688;2022-10-14T00:26:44;100376.73;;;15.65;81.03
3748;BME280;1889;50.058;8.688;2022-10-14T00:29:16;100375.03;;;15.64;81.55
3748;BME280;1889;50.058;8.688;2022-10-14T00:31:46;100375.03;;;15.64;81.55
3748;BME280;1889;50.058;8.688;2022-10-14T00:34:16;100381.06;;;15.56;81.45
3748;BME280;1889;50.058;8.688;2022-10-14T00:36:45;100374.08;;;15.65;81.03
3748;BME280;1889;50.058;8.688;2022-10-14T00:39:15;100374.08;;;15.65;81.03
3748;BME280;1889;50.058;8.688;2022-10-14T00:41:45;100377.01;;;15.71;81.06
3748;BME280;1889;50.058;8.688;2022-10-14T00:46:48;100386.08;;;15.77;80.87
3748;BME280;1889;50.058;8.688;2022-10-14T00:49:25;100381.23;;;15.77;80.71
3748;BME280;1889;50.058;8.688;2022-10-14T00:52:00;100384.88;;;15.61;81.01
3748;BME280;1889;50.058;8.688;2022-10-14T00:54:41;100383.86;;;15.50;81.57
3748;BME280;1889;50.058;8.688;2022-10-14T00:57:11;100382.22;;;15.61;81.45
3748;BME280;1889;50.058;8.688;2022-10-14T00:59:41;100378.43;;;15.68;81.13
3748;BME280;1889;50.058;8.688;2022-10-14T01:02:11;100378.58;;;15.77;80.72
3748;BME280;1889;50.058;8.688;2022-10-14T01:04:42;100373.08;;;15.70;80.73
3748;BME280;1889;50.058;8.688;2022-10-14T01:18:42;100367.36;;;15.69;80.42
3748;BME280;1889;50.058;8.688;2022-10-14T01:21:21;100367.98;;;15.63;80.96
3748;BME280;1889;50.058;8.688;2022-10-14T01:27:15;100360.89;;;15.64;81.37
3748;BME280;1889;50.058;8.688;2022-10-14T01:32:46;100357.44;;;15.74;80.63
3748;BME280;1889;50.058;8.688;2022-10-14T01:35:36;100357.44;;;15.74;80.63
3748;BME280;1889;50.058;8.688;2022-10-14T01:38:11;100352.20;;;15.72;80.61
3748;BME280;1889;50.058;8.688;2022-10-14T01:41:01;100352.20;;;15.72;80.61
3748;BME280;1889;50.058;8.688;2022-10-14T01:43:31;100346.22;;;15.79;81.11
3748;BME280;1889;50.058;8.688;2022-10-14T01:46:03;100343.98;;;15.80;80.35
3748;BME280;1889;50.058;8.688;2022-10-14T01:48:36;100343.98;;;15.80;80.35
3748;BME280;1889;50.058;8.688;2022-10-14T01:51:10;100342.28;;;15.77;80.65
3748;BME280;1889;50.058;8.688;2022-10-14T01:53:44;100337.61;;;15.72;80.92
3748;BME280;1889;50.058;8.688;2022-10-14T01:56:15;100333.17;;;15.73;81.10
3748;BME280;1889;50.058;8.688;2022-10-14T01:58:45;100337.39;;;15.78;80.81
3748;BME280;1889;50.058;8.688;2022-10-14T02:01:15;100334.09;;;15.83;80.70
3748;BME280;1889;50.058;8.688;2022-10-14T02:03:46;100334.09;;;15.83;80.70
3748;BME280;1889;50.058;8.688;2022-10-14T02:06:30;100324.98;;;15.79;80.58
3748;BME280;1889;50.058;8.688;2022-10-14T02:09:15;100324.98;;;15.79;80.58
3748;BME280;1889;50.058;8.688;2022-10-14T02:17:16;100315.88;;;15.86;80.36
3748;BME280;1889;50.058;8.688;2022-10-14T02:22:15;100313.09;;;15.77;80.95
3748;BME280;1889;50.058;8.688;2022-10-14T02:24:45;100304.08;;;15.70;81.22
3748;BME280;1889;50.058;8.688;2022-10-14T02:27:17;100304.08;;;15.70;81.22
3748;BME280;1889;50.058;8.688;2022-10-14T02:29:50;100301.09;;;15.79;80.83
3748;BME280;1889;50.058;8.688;2022-10-14T02:32:22;100287.98;;;15.62;81.39
3748;BME280;1889;50.058;8.688;2022-10-14T02:34:55;100287.98;;;15.62;81.39
3748;BME280;1889;50.058;8.688;2022-10-14T02:37:25;100292.77;;;15.64;81.27
3748;BME280;1889;50.058;8.688;2022-10-14T02:40:10;100284.36;;;15.77;80.68
3748;BME280;1889;50.058;8.688;2022-10-14T02:42:40;100284.36;;;15.77;80.68
3748;BME280;1889;50.058;8.688;2022-10-14T02:45:10;100286.05;;;15.79;80.61
3748;BME280;1889;50.058;8.688;2022-10-14T02:47:41;100279.09;;;15.63;81.03
3748;BME280;1889;50.058;8.688;2022-10-14T02:50:10;100284.73;;;15.54;81.42
3748;BME280;1889;50.058;8.688;2022-10-14T02:52:40;100285.38;;;15.61;81.59
3748;BME280;1889;50.058;8.688;2022-10-14T02:55:09;100275.45;;;15.66;81.12
3748;BME280;1889;50.058;8.688;2022-10-14T02:57:39;100267.56;;;15.76;80.92
3748;BME280;1889;50.058;8.688;2022-10-14T03:00:09;100267.56;;;15.76;80.92
3748;BME280;1889;50.058;8.688;2022-10-14T03:02:38;100269.58;;;15.81;80.55
3748;BME280;1889;50.058;8.688;2022-10-14T03:05:08;100263.44;;;15.81;80.54
3748;BME280;1889;50.058;8.688;2022-10-14T03:07:37;100255.70;;;15.86;80.20
3748;BME280;1889;50.058;8.688;2022-10-14T03:10:07;100255.70;;;15.86;80.20
3748;BME280;1889;50.058;8.688;2022-10-14T03:12:36;100258.86;;;15.84;80.11
3748;BME280;1889;50.058;8.688;2022-10-14T03:15:06;100260.14;;;15.86;80.11
3748;BME280;1889;50.058;8.688;2022-10-14T03:17:36;100249.95;;;15.74;80.18
3748;BME280;1889;50.058;8.688;2022-10-14T03:20:06;100255.50;;;15.68;80.88
3748;BME280;1889;50.058;8.688;2022-10-14T03:22:35;100253.81;;;15.65;81.07
3748;BME280;1889;50.058;8.688;2022-10-14T03:25:05;100255.21;;;15.75;80.61
3748;BME280;1889;50.058;8.688;2022-10-14T03:27:34;100251.08;;;15.80;80.47
3748;BME280;1889;50.058;8.688;2022-10-14T03:30:04;100251.87;;;15.82;79.87
3748;BME280;1889;50.058;8.688;2022-10-14T03:32:34;100247.59;;;15.89;79.77
3748;BME280;1889;50.058;8.688;2022-10-14T03:35:03;100247.59;;;15.89;79.77
3748;BME280;1889;50.058;8.688;2022-10-14T03:37:33;100250.25;;;15.89;79.94
3748;BME280;1889;50.058;8.688;2022-10-14T03:40:02;100248.30;;;15.83;80.15
3748;BME280;1889;50.058;8.688;2022-10-14T03:42:31;100245.14;;;15.96;79.55
3748;BME280;1889;50.058;8.688;2022-10-14T03:45:03;100245.14;;;15.96;79.55
3748;BME280;1889;50.058;8.688;2022-10-14T03:47:32;100240.81;;;15.94;79.58
3748;BME280;1889;50.058;8.688;2022-10-14T03:50:02;100237.23;;;15.95;79.62
3748;BME280;1889;50.058;8.688;2022-10-14T03:52:32;100241.91;;;15.88;79.76
3748;BME280;1889;50.058;8.688;2022-10-14T03:55:01;100242.25;;;15.79;80.36
3748;BME280;1889;50.058;8.688;2022-10-14T03:57:31;100239.58;;;15.91;79.98
3748;BME280;1889;50.058;8.688;2022-10-14T04:00:00;100231.92;;;15.95;79.70
3748;BME280;1889;50.058;8.688;2022-10-14T04:02:29;100228.21;;;15.99;79.48
3748;BME280;1889;50.058;8.688;2022-10-14T04:04:59;100236.92;;;15.91;79.68
3748;BME280;1889;50.058;8.688;2022-10-14T04:07:28;100226.20;;;15.94;79.82
3748;BME280;1889;50.058;8.688;2022-10-14T04:09:57;100223.25;;;16.01;79.37
3748;BME280;1889;50.058;8.688;2022-10-14T04:12:27;100223.25;;;16.01;79.37
3748;BME280;1889;50.058;8.688;2022-10-14T04:14:56;100230.70;;;16.03;79.45
3748;BME280;1889;50.058;8.688;2022-10-14T04:17:25;100229.08;;;15.99;79.19
3748;BME280;1889;50.058;8.688;2022-10-14T04:19:55;100229.08;;;15.99;79.19
3748;BME280;1889;50.058;8.688;2022-10-14T04:22:24;100229.59;;;15.97;79.57
3748;BME280;1889;50.058;8.688;2022-10-14T04:24:53;100225.73;;;15.83;80.46
3748;BME280;1889;50.058;8.688;2022-10-14T04:27:23;100225.73;;;15.83;80.46
3748;BME280;1889;50.058;8.688;2022-10-14T04:29:52;100229.20;;;15.85;80.30
3748;BME280;1889;50.058;8.688;2022-10-14T04:32:21;100229.32;;;15.93;79.56
3748;BME280;1889;50.058;8.688;2022-10-14T04:34:51;100229.32;;;15.93;79.56
3748;BME280;1889;50.058;8.688;2022-10-14T04:37:22;100231.88;;;15.96;79.79
3748;BME280;1889;50.058;8.688;2022-10-14T04:39:51;100226.94;;;15.97;79.83
3748;BME280;1889;50.058;8.688;2022-10-14T04:42:20;100224.42;;;15.94;79.84
3748;BME280;1889;50.058;8.688;2022-10-14T04:44:50;100221.93;;;16.01;79.68
3748;BME280;1889;50.058;8.688;2022-10-14T04:47:19;100217.64;;;15.97;79.73
3748;BME280;1889;50.058;8.688;2022-10-14T04:49:49;100212.17;;;16.02;79.69
3748;BME280;1889;50.058;8.688;2022-10-14T04:52:18;100212.98;;;16.04;79.58
3748;BME280;1889;50.058;8.688;2022-10-14T04:54:47;100207.63;;;15.94;80.21
3748;BME280;1889;50.058;8.688;2022-10-14T04:57:17;100211.68;;;15.81;80.88
3748;BME280;1889;50.058;8.688;2022-10-14T04:59:46;100211.68;;;15.81;80.88
3748;BME280;1889;50.058;8.688;2022-10-14T05:02:15;100203.06;;;15.86;80.59
3748;BME280;1889;50.058;8.688;2022-10-14T05:04:44;100206.48;;;15.78;80.94
3748;BME280;1889;50.058;8.688;2022-10-14T05:07:14;100206.48;;;15.78;80.94
3748;BME280;1889;50.058;8.688;2022-10-14T05:09:43;100196.37;;;15.76;81.10
3748;BME280;1889;50.058;8.688;2022-10-14T05:12:13;100198.87;;;15.80;81.29
3748;BME280;1889;50.058;8.688;2022-10-14T05:14:42;100198.87;;;15.80;81.29
3748;BME280;1889;50.058;8.688;2022-10-14T05:17:11;100194.02;;;15.80;81.09
3748;BME280;1889;50.058;8.688;2022-10-14T05:19:41;100188.06;;;15.85;80.94
3748;BME280;1889;50.058;8.688;2022-10-14T05:22:10;100188.06;;;15.85;80.94
3748;BME280;1889;50.058;8.688;2022-10-14T05:24:40;100193.73;;;15.87;80.88
3748;BME280;1889;50.058;8.688;2022-10-14T05:27:09;100193.73;;;15.87;80.88
3748;BME280;1889;50.058;8.688;2022-10-14T05:29:38;100189.20;;;15.89;80.68
3748;BME280;1889;50.058;8.688;2022-10-14T05:32:08;100192.81;;;15.88;81.16
3748;BME280;1889;50.058;8.688;2022-10-14T05:34:37;100184.89;;;15.87;80.39
3748;BME280;1889;50.058;8.688;2022-10-14T05:37:07;100183.98;;;15.88;80.62
3748;BME280;1889;50.058;8.688;2022-10-14T05:39:36;100183.98;;;15.88;80.62
3748;BME280;1889;50.058;8.688;2022-10-14T05:42:05;100184.73;;;15.80;81.00
3748;BME280;1889;50.058;8.688;2022-10-14T05:44:35;100187.09;;;15.87;81.08
3748;BME280;1889;50.058;8.688;2022-10-14T05:47:04;100181.19;;;15.91;80.25
3748;BME280;1889;50.058;8.688;2022-10-14T05:49:33;100181.19;;;15.91;80.25
3748;BME280;1889;50.058;8.688;2022-10-14T05:52:03;100181.53;;;15.93;80.12
3748;BME280;1889;50.058;8.688;2022-10-14T05:54:32;100182.86;;;15.93;80.39
3748;BME280;1889;50.058;8.688;2022-10-14T05:57:03;100177.45;;;15.96;80.98
3748;BME280;1889;50.058;8.688;2022-10-14T05:59:33;100177.36;;;15.98;80.44
3748;BME280;1889;50.058;8.688;2022-10-14T06:02:02;100180.42;;;15.99;79.97
3748;BME280;1889;50.058;8.688;2022-10-14T06:04:31;100180.42;;;15.99;79.97
3748;BME280;1889;50.058;8.688;2022-10-14T06:07:01;100171.89;;;16.02;80.36
3748;BME280;1889;50.058;8.688;2022-10-14T06:09:30;100170.37;;;16.07;80.20
3748;BME280;1889;50.058;8.688;2022-10-14T06:12:00;100170.37;;;16.07;80.20
3748;BME280;1889;50.058;8.688;2022-10-14T06:14:29;100167.25;;;16.08;80.05
3748;BME280;1889;50.058;8.688;2022-10-14T06:16:58;100175.52;;;16.12;79.71
3748;BME280;1889;50.058;8.688;2022-10-14T06:19:30;100175.52;;;16.12;79.71
3748;BME280;1889;50.058;8.688;2022-10-14T06:21:59;100176.53;;;16.19;79.23
3748;BME280;1889;50.058;8.688;2022-10-14T06:24:28;100168.22;;;16.17;80.06
3748;BME280;1889;50.058;8.688;2022-10-14T06:26:57;100166.48;;;16.16;80.13
3748;BME280;1889;50.058;8.688;2022-10-14T06:29:27;100166.48;;;16.16;80.13
3748;BME280;1889;50.058;8.688;2022-10-14T06:31:58;100161.53;;;16.18;79.70
3748;BME280;1889;50.058;8.688;2022-10-14T06:34:27;100163.97;;;16.13;79.37
3748;BME280;1889;50.058;8.688;2022-10-14T06:36:56;100165.52;;;16.07;80.05
3748;BME280;1889;50.058;8.688;2022-10-14T06:39:26;100165.52;;;16.07;80.05
3748;BME280;1889;50.058;8.688;2022-10-14T06:41:55;100170.88;;;16.17;80.06
3748;BME280;1889;50.058;8.688;2022-10-14T06:44:26;100162.91;;;16.17;79.93
3748;BME280;1889;50.058;8.688;2022-10-14T06:46:56;100162.91;;;16.17;79.93
3748;BME280;1889;50.058;8.688;2022-10-14T06:49:25;100173.37;;;16.21;79.91
3748;BME280;1889;50.058;8.688;2022-10-14T06:51:54;100168.83;;;16.23;79.82
3748;BME280;1889;50.058;8.688;2022-10-14T06:54:24;100179.86;;;16.24;80.02
3748;BME280;1889;50.058;8.688;2022-10-14T06:56:53;100183.84;;;16.24;79.74
3748;BME280;1889;50.058;8.688;2022-10-14T06:59:22;100183.84;;;16.24;79.74
3748;BME280;1889;50.058;8.688;2022-10-14T07:01:52;100179.91;;;16.34;79.10
3748;BME280;1889;50.058;8.688;2022-10-14T07:04:21;100178.84;;;16.38;79.01
3748;BME280;1889;50.058;8.688;2022-10-14T07:06:51;100178.84;;;16.38;79.01
3748;BME280;1889;50.058;8.688;2022-10-14T07:09:20;100178.27;;;16.42;79.51
3748;BME280;1889;50.058;8.688;2022-10-14T07:11:49;100178.27;;;16.42;79.51
3748;BME280;1889;50.058;8.688;2022-10-14T07:14:19;100175.41;;;16.47;79.34
3748;BME280;1889;50.058;8.688;2022-10-14T07:16:48;100171.97;;;16.45;79.45
3748;BME280;1889;50.058;8.688;2022-10-14T07:19:18;100171.97;;;16.45;79.45
3748;BME280;1889;50.058;8.688;2022-10-14T07:21:47;100172.75;;;16.47;78.79
3748;BME280;1889;50.058;8.688;2022-10-14T07:24:16;100172.75;;;16.47;78.79
3748;BME280;1889;50.058;8.688;2022-10-14T07:26:46;100177.54;;;16.49;78.97
3748;BME280;1889;50.058;8.688;2022-10-14T07:29:16;100177.69;;;16.46;79.05
3748;BME280;1889;50.058;8.688;2022-10-14T07:31:45;100169.77;;;16.44;78.84
3748;BME280;1889;50.058;8.688;2022-10-14T07:34:14;100174.88;;;16.49;79.36
3748;BME280;1889;50.058;8.688;2022-10-14T07:36:44;100169.08;;;16.39;79.89
3748;BME280;1889;50.058;8.688;2022-10-14T07:39:13;100165.58;;;16.49;78.98
3748;BME280;1889;50.058;8.688;2022-10-14T07:41:42;100174.45;;;16.59;79.15
3748;BME280;1889;50.058;8.688;2022-10-14T07:44:12;100173.15;;;16.48;79.25
3748;BME280;1889;50.058;8.688;2022-10-14T07:46:44;100179.83;;;16.58;79.19
3748;BME280;1889;50.058;8.688;2022-10-14T07:49:16;100179.94;;;16.45;79.15
3748;BME280;1889;50.058;8.688;2022-10-14T07:51:46;100171.22;;;16.41;79.39
3748;BME280;1889;50.058;8.688;2022-10-14T07:54:19;100175.03;;;16.46;79.65
3748;BME280;1889;50.058;8.688;2022-10-14T07:56:48;100168.24;;;16.49;79.98
3748;BME280;1889;50.058;8.688;2022-10-14T07:59:19;100170.93;;;16.59;79.12
3748;BME280;1889;50.058;8.688;2022-10-14T08:01:50;100174.22;;;16.65;78.88
3748;BME280;1889;50.058;8.688;2022-10-14T08:04:20;100175.09;;;16.54;79.31
3748;BME280;1889;50.058;8.688;2022-10-14T08:06:50;100175.89;;;16.56;78.95
3748;BME280;1889;50.058;8.688;2022-10-14T08:09:19;100177.28;;;16.45;79.50
3748;BME280;1889;50.058;8.688;2022-10-14T08:11:49;100174.25;;;16.54;79.27
3748;BME280;1889;50.058;8.688;2022-10-14T08:14:18;100173.75;;;16.54;79.70
3748;BME280;1889;50.058;8.688;2022-10-14T08:16:48;100170.27;;;16.54;79.45
3748;BME280;1889;50.058;8.688;2022-10-14T08:19:17;100167.34;;;16.60;79.35
3748;BME280;1889;50.058;8.688;2022-10-14T08:21:46;100171.56;;;16.65;79.52
3748;BME280;1889;50.058;8.688;2022-10-14T08:24:15;100164.75;;;16.70;79.70
3748;BME280;1889;50.058;8.688;2022-10-14T08:26:52;100162.66;;;16.66;79.87
3748;BME280;1889;50.058;8.688;2022-10-14T08:29:22;100162.66;;;16.66;79.87
3748;BME280;1889;50.058;8.688;2022-10-14T08:31:54;100155.56;;;16.67;79.57
3748;BME280;1889;50.058;8.688;2022-10-14T08:34:23;100154.89;;;16.72;79.52
3748;BME280;1889;50.058;8.688;2022-10-14T08:36:53;100154.09;;;16.80;78.96
3748;BME280;1889;50.058;8.688;2022-10-14T08:39:23;100159.55;;;16.87;78.75
3748;BME280;1889;50.058;8.688;2022-10-14T08:44:54;100157.98;;;16.93;79.42
3748;BME280;1889;50.058;8.688;2022-10-14T08:47:20;100145.92;;;17.05;79.39
3748;BME280;1889;50.058;8.688;2022-10-14T08:52:52;100146.98;;;17.11;79.05
3748;BME280;1889;50.058;8.688;2022-10-14T08:55:35;100148.77;;;17.21;78.63
3748;BME280;1889;50.058;8.688;2022-10-14T08:58:22;100144.66;;;17.24;78.45
3748;BME280;1889;50.058;8.688;2022-10-14T09:00:53;100146.73;;;17.17;77.98
3748;BME280;1889;50.058;8.688;2022-10-14T09:03:25;100146.73;;;17.17;77.98
3748;BME280;1889;50.058;8.688;2022-10-14T09:06:10;100154.71;;;17.17;78.11
3748;BME280;1889;50.058;8.688;2022-10-14T09:08:37;100148.37;;;17.20;78.60
3748;BME280;1889;50.058;8.688;2022-10-14T09:11:17;100148.37;;;17.20;78.60
3748;BME280;1889;50.058;8.688;2022-10-14T09:13:48;100146.39;;;17.14;78.90
3748;BME280;1889;50.058;8.688;2022-10-14T09:18:58;100133.67;;;17.21;78.83
3748;BME280;1889;50.058;8.688;2022-10-14T09:21:40;100143.78;;;17.33;78.28
3748;BME280;1889;50.058;8.688;2022-10-14T09:24:20;100141.17;;;17.42;78.34
3748;BME280;1889;50.058;8.688;2022-10-14T09:26:52;100135.99;;;17.29;78.08
3748;BME280;1889;50.058;8.688;2022-10-14T09:32:27;100130.08;;;17.32;77.75
3748;BME280;1889;50.058;8.688;2022-10-14T09:34:53;100113.95;;;17.35;78.24
3748;BME280;1889;50.058;8.688;2022-10-14T09:37:28;100113.95;;;17.35;78.24
3748;BME280;1889;50.058;8.688;2022-10-14T09:42:49;100096.59;;;17.37;77.65
3748;BME280;1889;50.058;8.688;2022-10-14T09:45:19;100101.92;;;17.37;77.99
3748;BME280;1889;50.058;8.688;2022-10-14T09:47:58;100089.71;;;17.33;77.95
3748;BME280;1889;50.058;8.688;2022-10-14T09:50:41;100084.52;;;17.30;78.00
3748;BME280;1889;50.058;8.688;2022-10-14T09:53:16;100089.17;;;17.35;78.70
3748;BME280;1889;50.058;8.688;2022-10-14T09:55:51;100077.84;;;17.40;78.24
3748;BME280;1889;50.058;8.688;2022-10-14T09:58:24;100079.16;;;17.50;78.57
3748;BME280;1889;50.058;8.688;2022-10-14T10:00:59;100070.23;;;17.60;78.30
3748;BME280;1889;50.058;8.688;2022-10-14T10:03:31;100070.23;;;17.60;78.30
3748;BME280;1889;50.058;8.688;2022-10-14T10:06:04;100063.75;;;17.57;77.99
3748;BME280;1889;50.058;8.688;2022-10-14T10:08:37;100057.39;;;17.69;77.41
3748;BME280;1889;50.058;8.688;2022-10-14T10:11:12;100058.96;;;17.65;77.76
3748;BME280;1889;50.058;8.688;2022-10-14T10:13:46;100059.76;;;17.67;77.82
3748;BME280;1889;50.058;8.688;2022-10-14T10:16:27;100053.59;;;17.75;77.61
3748;BME280;1889;50.058;8.688;2022-10-14T10:18:54;100053.59;;;17.75;77.61
3748;BME280;1889;50.058;8.688;2022-10-14T10:21:27;100059.61;;;18.06;77.08
3748;BME280;1889;50.058;8.688;2022-10-14T10:23:59;100052.31;;;18.09;76.76
3748;BME280;1889;50.058;8.688;2022-10-14T10:26:31;100048.97;;;18.14;76.49
3748;BME280;1889;50.058;8.688;2022-10-14T10:29:03;100054.53;;;18.18;76.25
3748;BME280;1889;50.058;8.688;2022-10-14T10:31:50;100055.08;;;18.08;75.35
3748;BME280;1889;50.058;8.688;2022-10-14T10:34:41;100055.08;;;18.08;75.35
3748;BME280;1889;50.058;8.688;2022-10-14T10:42:51;100061.26;;;18.00;74.57
3748;BME280;1889;50.058;8.688;2022-10-14T10:45:34;100054.29;;;18.06;74.81
3748;BME280;1889;50.058;8.688;2022-10-14T10:48:14;100054.29;;;18.06;74.81
3748;BME280;1889;50.058;8.688;2022-10-14T10:50:50;100043.94;;;18.17;74.40
3748;BME280;1889;50.058;8.688;2022-10-14T10:53:48;100043.94;;;18.17;74.40
3748;BME280;1889;50.058;8.688;2022-10-14T10:56:21;100044.34;;;18.26;74.76
3748;BME280;1889;50.058;8.688;2022-10-14T10:59:07;100039.02;;;18.26;74.82
3748;BME280;1889;50.058;8.688;2022-10-14T11:13:00;100019.97;;;18.34;74.77
3748;BME280;1889;50.058;8.688;2022-10-14T11:15:53;100021.16;;;18.28;74.32
3748;BME280;1889;50.058;8.688;2022-10-14T11:26:55;100020.11;;;17.97;74.69
3748;BME280;1889;50.058;8.688;2022-10-14T11:32:20;100017.20;;;17.92;74.59
3748;BME280;1889;50.058;8.688;2022-10-14T11:35:30;100001.73;;;17.54;75.51
3748;BME280;1889;50.058;8.688;2022-10-14T11:37:40;100002.97;;;17.47;76.60
3748;BME280;1889;50.058;8.688;2022-10-14T11:40:21;99995.63;;;17.52;75.74
3748;BME280;1889;50.058;8.688;2022-10-14T11:45:37;99985.23;;;17.57;75.97
3748;BME280;1889;50.058;8.688;2022-10-14T11:50:57;99978.73;;;17.72;76.01
3748;BME280;1889;50.058;8.688;2022-10-14T11:53:37;99976.70;;;17.86;75.79
3748;BME280;1889;50.058;8.688;2022-10-14T11:56:11;99968.17;;;17.88;75.67
3748;BME280;1889;50.058;8.688;2022-10-14T11:58:41;99958.14;;;17.93;75.04
3748;BME280;1889;50.058;8.688;2022-10-14T12:01:14;99958.14;;;17.93;75.04
3748;BME280;1889;50.058;8.688;2022-10-14T12:06:24;99964.66;;;18.05;74.93
3748;BME280;1889;50.058;8.688;2022-10-14T12:08:58;99966.70;;;18.00;74.87
3748;BME280;1889;50.058;8.688;2022-10-14T12:16:43;99948.67;;;17.96;74.61
3748;BME280;1889;50.058;8.688;2022-10-14T12:19:20;99955.15;;;17.65;74.99
3748;BME280;1889;50.058;8.688;2022-10-14T12:22:12;99955.15;;;17.65;74.99
3748;BME280;1889;50.058;8.688;2022-10-14T12:24:47;99957.78;;;17.37;76.44
3748;BME280;1889;50.058;8.688;2022-10-14T12:27:13;99952.09;;;17.45;76.77
3748;BME280;1889;50.058;8.688;2022-10-14T12:29:45;99948.93;;;17.37;77.58
3748;BME280;1889;50.058;8.688;2022-10-14T12:32:28;99948.93;;;17.37;77.58
3748;BME280;1889;50.058;8.688;2022-10-14T12:34:59;99944.73;;;17.41;77.25
3748;BME280;1889;50.058;8.688;2022-10-14T12:42:35;99932.13;;;17.45;77.82
3748;BME280;1889;50.058;8.688;2022-10-14T12:45:26;99925.73;;;17.49;77.30
3748;BME280;1889;50.058;8.688;2022-10-14T12:48:11;99925.73;;;17.49;77.30
3748;BME280;1889;50.058;8.688;2022-10-14T12:50:44;99921.86;;;17.37;77.97
3748;BME280;1889;50.058;8.688;2022-10-14T12:53:22;99921.86;;;17.37;77.97
3748;BME280;1889;50.058;8.688;2022-10-14T12:55:58;99921.46;;;17.36;78.29
3748;BME280;1889;50.058;8.688;2022-10-14T12:58:35;99926.25;;;17.38;78.45
3748;BME280;1889;50.058;8.688;2022-10-14T13:01:20;99931.73;;;17.44;77.94
3748;BME280;1889;50.058;8.688;2022-10-14T13:03:54;99931.73;;;17.44;77.94
3748;BME280;1889;50.058;8.688;2022-10-14T13:06:33;99929.55;;;17.35;78.85
3748;BME280;1889;50.058;8.688;2022-10-14T13:14:30;99925.45;;;17.36;78.84
3748;BME280;1889;50.058;8.688;2022-10-14T13:17:24;99915.09;;;17.22;79.36
3748;BME280;1889;50.058;8.688;2022-10-14T13:28:14;99912.99;;;17.28;79.31
3748;BME280;1889;50.058;8.688;2022-10-14T13:30:49;99904.76;;;17.43;78.75
3748;BME280;1889;50.058;8.688;2022-10-14T13:33:46;99904.76;;;17.43;78.75
3748;BME280;1889;50.058;8.688;2022-10-14T13:36:21;99882.76;;;17.48;78.61
3748;BME280;1889;50.058;8.688;2022-10-14T13:38:34;99882.36;;;17.47;78.88
3748;BME280;1889;50.058;8.688;2022-10-14T13:41:04;99869.14;;;17.54;78.44
3748;BME280;1889;50.058;8.688;2022-10-14T13:46:15;99877.95;;;17.65;77.82
3748;BME280;1889;50.058;8.688;2022-10-14T13:48:47;99878.85;;;17.55;78.36
3748;BME280;1889;50.058;8.688;2022-10-14T13:54:18;99865.31;;;17.42;79.37
3748;BME280;1889;50.058;8.688;2022-10-14T13:56:59;99867.87;;;17.44;78.42
3748;BME280;1889;50.058;8.688;2022-10-14T13:59:29;99867.87;;;17.44;78.42
3748;BME280;1889;50.058;8.688;2022-10-14T14:02:01;99860.67;;;17.46;78.62
3748;BME280;1889;50.058;8.688;2022-10-14T14:04:33;99857.87;;;17.40;78.84
3748;BME280;1889;50.058;8.688;2022-10-14T14:07:05;99854.89;;;17.46;78.66
3748;BME280;1889;50.058;8.688;2022-10-14T14:09:35;99861.41;;;17.49;78.62
3748;BME280;1889;50.058;8.688;2022-10-14T14:12:05;99852.28;;;17.36;78.92
3748;BME280;1889;50.058;8.688;2022-10-14T14:14:39;99852.28;;;17.36;79.14
3748;BME280;1889;50.058;8.688;2022-10-14T14:17:19;99858.73;;;17.41;79.66
3748;BME280;1889;50.058;8.688;2022-10-14T14:19:50;99849.63;;;17.36;79.35
3748;BME280;1889;50.058;8.688;2022-10-14T14:22:32;99849.63;;;17.36;79.35
3748;BME280;1889;50.058;8.688;2022-10-14T14:25:24;99847.38;;;17.46;79.08
3748;BME280;1889;50.058;8.688;2022-10-14T14:28:01;99847.38;;;17.46;79.08
3748;BME280;1889;50.058;8.688;2022-10-14T14:30:35;99834.33;;;17.50;79.55
3748;BME280;1889;50.058;8.688;2022-10-14T14:33:07;99830.70;;;17.60;79.21
3748;BME280;1889;50.058;8.688;2022-10-14T14:35:37;99835.34;;;17.56;79.17
3748;BME280;1889;50.058;8.688;2022-10-14T14:41:02;99836.05;;;17.51;79.39
3748;BME280;1889;50.058;8.688;2022-10-14T14:43:33;99813.90;;;17.59;79.56
3748;BME280;1889;50.058;8.688;2022-10-14T14:46:04;99813.90;;;17.59;79.56
3748;BME280;1889;50.058;8.688;2022-10-14T14:48:34;99801.13;;;17.57;79.37
3748;BME280;1889;50.058;8.688;2022-10-14T14:51:08;99794.63;;;17.54;79.56
3748;BME280;1889;50.058;8.688;2022-10-14T14:53:39;99791.59;;;17.62;79.59
3748;BME280;1889;50.058;8.688;2022-10-14T14:56:12;99787.92;;;17.64;79.75
3748;BME280;1889;50.058;8.688;2022-10-14T14:58:45;99787.92;;;17.64;79.75
3748;BME280;1889;50.058;8.688;2022-10-14T15:01:25;99789.32;;;17.71;79.42
3748;BME280;1889;50.058;8.688;2022-10-14T15:04:05;99789.39;;;17.78;79.62
3748;BME280;1889;50.058;8.688;2022-10-14T15:06:36;99789.39;;;17.78;79.62
3748;BME280;1889;50.058;8.688;2022-10-14T15:09:10;99774.83;;;17.68;79.64
3748;BME280;1889;50.058;8.688;2022-10-14T15:11:54;99778.99;;;17.74;79.40
3748;BME280;1889;50.058;8.688;2022-10-14T15:16:57;99777.86;;;17.61;79.97
3748;BME280;1889;50.058;8.688;2022-10-14T15:19:35;99777.86;;;17.61;79.97
3748;BME280;1889;50.058;8.688;2022-10-14T15:27:47;99787.14;;;17.62;79.81
3748;BME280;1889;50.058;8.688;2022-10-14T15:30:27;99781.45;;;17.60;80.12
3748;BME280;1889;50.058;8.688;2022-10-14T15:35:35;99778.44;;;17.50;80.32
3748;BME280;1889;50.058;8.688;2022-10-14T15:38:13;99778.19;;;17.46;81.05
3748;BME280;1889;50.058;8.688;2022-10-14T15:40:44;99782.44;;;17.41;81.48
3748;BME280;1889;50.058;8.688;2022-10-14T15:43:16;99779.91;;;17.30;81.81